Airfield :







YOU CAN JOIN US ON...

 
LOGIN :

Register | Disclaimer

   EN    FR    IT 

 









Legend :    VFR   Marginal VFR   IFR   Intensive IFR   Very Intensive IFR
Visi :
Ceiling :
>= 8 km
>= 3000ft
5 to 8 km
1000 to 3000 ft
1500m to 5 km
500 to 1000 ft
800 to 1500m
200 to 500 ft
< 800m
< 200 ft
Symbols :   Thunderstorms  Fog  Heavy snow  Heavy precipitations  Wind > 20 kt







- Airport Elevation : 232 ft
- IATA code : YQM


CYQM - Greater Moncton International

CURRENT METAR :
  • 251300Z 35015G24KT 2SM -DZ BR SCT004 OVC008 01/01 A2977 RMK SF4SF4 SLP085

EXPIRED METARs :
  • 251248Z 35014G21KT 2SM -RA BR SCT005 OVC008 01/01 A2976 RMK SF4SF4 SLP084
  • 251200Z 34013G19KT 1 1/2SM -SN BKN004 OVC008 01/01 A2975 RMK SF5SF3 /S01/ SLP078

TAF AMD TAF CYQM
Valid from the 25 at 14:00 until the 26 at 12:00 UTC


251407Z 2514/2612 36015G25KT 21/2SM -SNRA -DZ BR BKN008 OVC015
TEMPO 2514/2516 P6SM NSW SCT008 OVC015
FM251600 36012G22KT 5SM -SNRA -DZ BR OVC015
TEMPO 2516/2523 P6SM NSW SCT015 OVC025
FM252300 34008KT P6SM BKN008 OVC012
FM260400 30005KT P6SM FEW008 SCT012
BECMG 2604/2606 VRB03KT RMK NXT FCST BY 251800Z
CZQM FIR / North America



MET'MAP, your aeronautical weather chart ! - Copyright ORBIFLY December 2007 - Disclaimer

ORBIFLY MET'MAP TEAM :

Programming & Development : Alexandra Zaïnal
Concept & Development : Baudouin d'Aumeries
Co-Development & Prog : Marc-Olivier Méhu
Technical & hardware support : Manuel Goepfert

Contact : metmap@orbifly.com




SOURCES & CREDITS :

   NOAA